sensor_id;sensor_type;location;lat;lon;timestamp;temperature;humidity
30893;DHT22;17595;50.884;4.346;2023-12-14T00:00:45;11.70;99.90
30893;DHT22;17595;50.884;4.346;2023-12-14T00:03:11;11.70;99.90
30893;DHT22;17595;50.884;4.346;2023-12-14T00:05:36;11.80;99.90
30893;DHT22;17595;50.884;4.346;2023-12-14T00:08:02;11.80;99.90
30893;DHT22;17595;50.884;4.346;2023-12-14T00:10:28;11.80;99.90
30893;DHT22;17595;50.884;4.346;2023-12-14T00:12:53;11.80;99.90
30893;DHT22;17595;50.884;4.346;2023-12-14T00:15:20;12.00;99.90
30893;DHT22;17595;50.884;4.346;2023-12-14T00:17:46;12.10;99.90
30893;DHT22;17595;50.884;4.346;2023-12-14T00:20:12;12.10;99.90
30893;DHT22;17595;50.884;4.346;2023-12-14T00:22:37;12.00;99.90
30893;DHT22;17595;50.884;4.346;2023-12-14T00:25:04;12.00;99.90
30893;DHT22;17595;50.884;4.346;2023-12-14T00:27:30;11.90;99.90
30893;DHT22;17595;50.884;4.346;2023-12-14T00:29:56;11.90;99.90
30893;DHT22;17595;50.884;4.346;2023-12-14T00:32:21;11.70;99.90
30893;DHT22;17595;50.884;4.346;2023-12-14T00:34:47;11.50;99.90
30893;DHT22;17595;50.884;4.346;2023-12-14T00:37:14;11.50;99.90
30893;DHT22;17595;50.884;4.346;2023-12-14T00:39:40;11.40;99.90
30893;DHT22;17595;50.884;4.346;2023-12-14T00:42:05;11.40;99.90
30893;DHT22;17595;50.884;4.346;2023-12-14T00:44:31;11.40;99.90
30893;DHT22;17595;50.884;4.346;2023-12-14T00:46:57;11.30;99.90
30893;DHT22;17595;50.884;4.346;2023-12-14T00:49:23;11.10;99.90
30893;DHT22;17595;50.884;4.346;2023-12-14T00:51:49;11.10;99.90
30893;DHT22;17595;50.884;4.346;2023-12-14T00:54:15;11.00;99.90
30893;DHT22;17595;50.884;4.346;2023-12-14T00:56:40;11.00;99.90
30893;DHT22;17595;50.884;4.346;2023-12-14T00:59:06;11.10;99.90
30893;DHT22;17595;50.884;4.346;2023-12-14T01:01:32;11.10;99.90
30893;DHT22;17595;50.884;4.346;2023-12-14T01:03:58;11.00;99.90
30893;DHT22;17595;50.884;4.346;2023-12-14T01:06:25;11.00;99.90
30893;DHT22;17595;50.884;4.346;2023-12-14T01:08:50;11.00;99.90
30893;DHT22;17595;50.884;4.346;2023-12-14T01:11:16;11.00;99.90
30893;DHT22;17595;50.884;4.346;2023-12-14T01:13:41;10.90;99.90
30893;DHT22;17595;50.884;4.346;2023-12-14T01:16:07;10.80;99.90
30893;DHT22;17595;50.884;4.346;2023-12-14T01:18:33;10.80;99.90
30893;DHT22;17595;50.884;4.346;2023-12-14T01:20:59;10.80;99.90
30893;DHT22;17595;50.884;4.346;2023-12-14T01:23:24;10.80;99.90
30893;DHT22;17595;50.884;4.346;2023-12-14T01:25:50;10.90;99.90
30893;DHT22;17595;50.884;4.346;2023-12-14T01:28:16;10.90;99.90
30893;DHT22;17595;50.884;4.346;2023-12-14T01:30:41;10.80;99.90
30893;DHT22;17595;50.884;4.346;2023-12-14T01:33:07;10.90;99.90
30893;DHT22;17595;50.884;4.346;2023-12-14T01:35:32;11.00;99.90
30893;DHT22;17595;50.884;4.346;2023-12-14T01:37:58;10.80;99.90
30893;DHT22;17595;50.884;4.346;2023-12-14T01:40:23;10.90;99.90
30893;DHT22;17595;50.884;4.346;2023-12-14T01:42:49;11.00;99.90
30893;DHT22;17595;50.884;4.346;2023-12-14T01:45:15;10.90;99.90
30893;DHT22;17595;50.884;4.346;2023-12-14T01:47:42;10.80;99.90
30893;DHT22;17595;50.884;4.346;2023-12-14T01:50:08;10.70;99.90
30893;DHT22;17595;50.884;4.346;2023-12-14T01:52:34;10.60;99.90
30893;DHT22;17595;50.884;4.346;2023-12-14T01:55:00;10.60;99.90
30893;DHT22;17595;50.884;4.346;2023-12-14T01:57:28;10.60;99.90
30893;DHT22;17595;50.884;4.346;2023-12-14T01:59:53;10.50;99.90
30893;DHT22;17595;50.884;4.346;2023-12-14T02:02:19;10.50;99.90
30893;DHT22;17595;50.884;4.346;2023-12-14T02:04:45;10.70;99.90
30893;DHT22;17595;50.884;4.346;2023-12-14T02:07:10;10.90;99.90
30893;DHT22;17595;50.884;4.346;2023-12-14T02:09:36;11.10;99.90
30893;DHT22;17595;50.884;4.346;2023-12-14T02:12:02;11.30;99.90
30893;DHT22;17595;50.884;4.346;2023-12-14T02:14:28;11.30;99.90
30893;DHT22;17595;50.884;4.346;2023-12-14T02:16:53;11.30;99.90
30893;DHT22;17595;50.884;4.346;2023-12-14T02:19:19;11.30;99.90
30893;DHT22;17595;50.884;4.346;2023-12-14T02:21:44;11.30;99.90
30893;DHT22;17595;50.884;4.346;2023-12-14T02:24:10;11.30;99.90
30893;DHT22;17595;50.884;4.346;2023-12-14T02:26:36;11.40;99.90
30893;DHT22;17595;50.884;4.346;2023-12-14T02:29:01;11.50;99.90
30893;DHT22;17595;50.884;4.346;2023-12-14T02:31:27;11.50;99.90
30893;DHT22;17595;50.884;4.346;2023-12-14T02:33:52;11.10;99.90
30893;DHT22;17595;50.884;4.346;2023-12-14T02:36:18;11.00;99.90
30893;DHT22;17595;50.884;4.346;2023-12-14T02:38:44;10.90;99.90
30893;DHT22;17595;50.884;4.346;2023-12-14T02:41:10;10.70;99.90
30893;DHT22;17595;50.884;4.346;2023-12-14T02:43:36;10.80;99.90
30893;DHT22;17595;50.884;4.346;2023-12-14T02:46:03;10.90;99.90
30893;DHT22;17595;50.884;4.346;2023-12-14T02:48:29;11.10;99.90
30893;DHT22;17595;50.884;4.346;2023-12-14T02:50:55;11.10;99.90
30893;DHT22;17595;50.884;4.346;2023-12-14T02:53:20;11.20;99.90
30893;DHT22;17595;50.884;4.346;2023-12-14T02:55:46;11.40;99.90
30893;DHT22;17595;50.884;4.346;2023-12-14T02:58:12;11.50;99.90
30893;DHT22;17595;50.884;4.346;2023-12-14T03:00:37;11.50;99.90
30893;DHT22;17595;50.884;4.346;2023-12-14T03:03:03;11.50;99.90
30893;DHT22;17595;50.884;4.346;2023-12-14T03:05:29;11.50;99.90
30893;DHT22;17595;50.884;4.346;2023-12-14T03:07:54;11.30;99.90
30893;DHT22;17595;50.884;4.346;2023-12-14T03:10:20;11.10;99.90
30893;DHT22;17595;50.884;4.346;2023-12-14T03:12:45;11.00;99.90
30893;DHT22;17595;50.884;4.346;2023-12-14T03:15:11;11.10;99.90
30893;DHT22;17595;50.884;4.346;2023-12-14T03:17:36;11.20;99.90
30893;DHT22;17595;50.884;4.346;2023-12-14T03:20:02;11.10;99.90
30893;DHT22;17595;50.884;4.346;2023-12-14T03:22:30;10.90;99.90
30893;DHT22;17595;50.884;4.346;2023-12-14T03:24:56;10.70;99.90
30893;DHT22;17595;50.884;4.346;2023-12-14T03:27:21;10.60;99.90
30893;DHT22;17595;50.884;4.346;2023-12-14T03:29:48;10.40;99.90
30893;DHT22;17595;50.884;4.346;2023-12-14T03:32:14;10.20;99.90
30893;DHT22;17595;50.884;4.346;2023-12-14T03:34:40;9.90;99.90
30893;DHT22;17595;50.884;4.346;2023-12-14T03:37:06;9.60;99.90
30893;DHT22;17595;50.884;4.346;2023-12-14T03:39:32;9.40;99.90
30893;DHT22;17595;50.884;4.346;2023-12-14T03:41:57;9.50;99.90
30893;DHT22;17595;50.884;4.346;2023-12-14T03:44:23;9.50;99.90
30893;DHT22;17595;50.884;4.346;2023-12-14T03:46:49;9.40;99.90
30893;DHT22;17595;50.884;4.346;2023-12-14T03:49:15;9.50;99.90
30893;DHT22;17595;50.884;4.346;2023-12-14T03:51:41;9.50;99.90
30893;DHT22;17595;50.884;4.346;2023-12-14T03:54:07;9.60;99.90
30893;DHT22;17595;50.884;4.346;2023-12-14T03:56:32;9.70;99.90
30893;DHT22;17595;50.884;4.346;2023-12-14T03:58:58;9.70;99.90
30893;DHT22;17595;50.884;4.346;2023-12-14T04:01:24;9.70;99.90
30893;DHT22;17595;50.884;4.346;2023-12-14T04:03:49;9.50;99.90
30893;DHT22;17595;50.884;4.346;2023-12-14T04:06:15;9.50;99.90
30893;DHT22;17595;50.884;4.346;2023-12-14T04:08:41;9.40;99.90
30893;DHT22;17595;50.884;4.346;2023-12-14T04:11:07;9.30;99.90
30893;DHT22;17595;50.884;4.346;2023-12-14T04:13:33;9.30;99.90
30893;DHT22;17595;50.884;4.346;2023-12-14T04:15:59;9.20;99.90
30893;DHT22;17595;50.884;4.346;2023-12-14T04:18:25;9.10;99.90
30893;DHT22;17595;50.884;4.346;2023-12-14T04:20:51;9.20;99.90
30893;DHT22;17595;50.884;4.346;2023-12-14T04:23:16;9.30;99.90
30893;DHT22;17595;50.884;4.346;2023-12-14T04:25:42;9.30;99.90
30893;DHT22;17595;50.884;4.346;2023-12-14T04:28:08;9.20;99.90
30893;DHT22;17595;50.884;4.346;2023-12-14T04:30:33;9.20;99.90
30893;DHT22;17595;50.884;4.346;2023-12-14T04:32:59;9.20;99.90
30893;DHT22;17595;50.884;4.346;2023-12-14T04:35:24;9.10;99.90
30893;DHT22;17595;50.884;4.346;2023-12-14T04:37:50;9.00;99.90
30893;DHT22;17595;50.884;4.346;2023-12-14T04:40:17;8.90;99.90
30893;DHT22;17595;50.884;4.346;2023-12-14T04:42:43;8.90;99.90
30893;DHT22;17595;50.884;4.346;2023-12-14T04:45:09;8.90;99.90
30893;DHT22;17595;50.884;4.346;2023-12-14T04:47:35;9.00;99.90
30893;DHT22;17595;50.884;4.346;2023-12-14T04:50:02;9.10;99.90
30893;DHT22;17595;50.884;4.346;2023-12-14T04:52:27;9.10;99.90
30893;DHT22;17595;50.884;4.346;2023-12-14T04:54:53;9.00;99.90
30893;DHT22;17595;50.884;4.346;2023-12-14T04:57:19;9.00;99.90
30893;DHT22;17595;50.884;4.346;2023-12-14T04:59:44;9.10;99.90
30893;DHT22;17595;50.884;4.346;2023-12-14T05:02:10;9.20;99.90
30893;DHT22;17595;50.884;4.346;2023-12-14T05:04:35;9.20;99.90
30893;DHT22;17595;50.884;4.346;2023-12-14T05:07:01;9.20;99.90
30893;DHT22;17595;50.884;4.346;2023-12-14T05:09:27;9.10;99.90
30893;DHT22;17595;50.884;4.346;2023-12-14T05:11:53;9.10;99.90
30893;DHT22;17595;50.884;4.346;2023-12-14T05:14:19;9.10;99.90
30893;DHT22;17595;50.884;4.346;2023-12-14T05:16:44;9.10;99.90
30893;DHT22;17595;50.884;4.346;2023-12-14T05:19:10;9.20;99.90
30893;DHT22;17595;50.884;4.346;2023-12-14T05:21:36;9.10;99.90
30893;DHT22;17595;50.884;4.346;2023-12-14T05:24:01;9.20;99.90
30893;DHT22;17595;50.884;4.346;2023-12-14T05:26:28;9.30;99.90
30893;DHT22;17595;50.884;4.346;2023-12-14T05:28:53;9.30;99.90
30893;DHT22;17595;50.884;4.346;2023-12-14T05:31:19;9.30;99.90
30893;DHT22;17595;50.884;4.346;2023-12-14T05:33:45;9.20;99.90
30893;DHT22;17595;50.884;4.346;2023-12-14T05:36:10;9.00;99.90
30893;DHT22;17595;50.884;4.346;2023-12-14T05:38:38;9.00;99.90
30893;DHT22;17595;50.884;4.346;2023-12-14T05:41:04;9.10;99.90
30893;DHT22;17595;50.884;4.346;2023-12-14T05:43:30;9.10;99.90
30893;DHT22;17595;50.884;4.346;2023-12-14T05:45:56;9.10;99.90
30893;DHT22;17595;50.884;4.346;2023-12-14T05:48:21;9.10;99.90
30893;DHT22;17595;50.884;4.346;2023-12-14T05:50:47;9.10;99.90
30893;DHT22;17595;50.884;4.346;2023-12-14T05:53:13;9.20;99.90
30893;DHT22;17595;50.884;4.346;2023-12-14T05:55:39;9.10;99.90
30893;DHT22;17595;50.884;4.346;2023-12-14T05:58:06;9.00;99.90
30893;DHT22;17595;50.884;4.346;2023-12-14T06:00:33;9.00;99.90
30893;DHT22;17595;50.884;4.346;2023-12-14T06:03:00;9.00;99.90
30893;DHT22;17595;50.884;4.346;2023-12-14T06:05:25;9.10;99.90
30893;DHT22;17595;50.884;4.346;2023-12-14T06:07:51;9.00;99.90
30893;DHT22;17595;50.884;4.346;2023-12-14T06:10:17;9.00;99.90
30893;DHT22;17595;50.884;4.346;2023-12-14T06:12:43;9.00;99.90
30893;DHT22;17595;50.884;4.346;2023-12-14T06:15:08;9.10;99.90
30893;DHT22;17595;50.884;4.346;2023-12-14T06:17:34;9.10;99.90
30893;DHT22;17595;50.884;4.346;2023-12-14T06:20:02;9.10;99.90
30893;DHT22;17595;50.884;4.346;2023-12-14T06:22:29;9.20;99.90
30893;DHT22;17595;50.884;4.346;2023-12-14T06:24:55;9.20;99.90
30893;DHT22;17595;50.884;4.346;2023-12-14T06:27:20;9.30;99.90
30893;DHT22;17595;50.884;4.346;2023-12-14T06:29:51;9.30;99.90
30893;DHT22;17595;50.884;4.346;2023-12-14T06:32:17;9.30;99.90
30893;DHT22;17595;50.884;4.346;2023-12-14T06:34:43;9.20;99.90
30893;DHT22;17595;50.884;4.346;2023-12-14T06:37:09;9.30;99.90
30893;DHT22;17595;50.884;4.346;2023-12-14T06:39:34;9.20;99.90
30893;DHT22;17595;50.884;4.346;2023-12-14T06:42:01;9.20;99.90
30893;DHT22;17595;50.884;4.346;2023-12-14T06:44:27;9.30;99.90
30893;DHT22;17595;50.884;4.346;2023-12-14T06:46:53;9.20;99.90
30893;DHT22;17595;50.884;4.346;2023-12-14T06:49:20;9.00;99.90
30893;DHT22;17595;50.884;4.346;2023-12-14T06:51:46;9.10;99.90
30893;DHT22;17595;50.884;4.346;2023-12-14T06:54:11;9.10;99.90
30893;DHT22;17595;50.884;4.346;2023-12-14T06:56:37;9.20;99.90
30893;DHT22;17595;50.884;4.346;2023-12-14T06:59:03;9.20;99.90
30893;DHT22;17595;50.884;4.346;2023-12-14T07:01:28;9.20;99.90
30893;DHT22;17595;50.884;4.346;2023-12-14T07:03:54;9.40;99.90
30893;DHT22;17595;50.884;4.346;2023-12-14T07:06:21;9.60;99.90
30893;DHT22;17595;50.884;4.346;2023-12-14T07:08:47;9.80;99.90
30893;DHT22;17595;50.884;4.346;2023-12-14T07:11:13;9.90;99.90
30893;DHT22;17595;50.884;4.346;2023-12-14T07:13:39;10.00;99.90
30893;DHT22;17595;50.884;4.346;2023-12-14T07:16:09;10.00;99.90
30893;DHT22;17595;50.884;4.346;2023-12-14T07:18:35;10.00;99.90
30893;DHT22;17595;50.884;4.346;2023-12-14T07:21:02;9.80;99.90
30893;DHT22;17595;50.884;4.346;2023-12-14T07:23:28;9.80;99.90
30893;DHT22;17595;50.884;4.346;2023-12-14T07:25:53;9.90;99.90
30893;DHT22;17595;50.884;4.346;2023-12-14T07:28:19;10.00;99.90
30893;DHT22;17595;50.884;4.346;2023-12-14T07:30:48;10.00;99.90
30893;DHT22;17595;50.884;4.346;2023-12-14T07:33:16;10.10;99.90
30893;DHT22;17595;50.884;4.346;2023-12-14T07:35:42;10.10;99.90
30893;DHT22;17595;50.884;4.346;2023-12-14T07:38:10;10.20;99.90
30893;DHT22;17595;50.884;4.346;2023-12-14T07:40:35;10.10;99.90
30893;DHT22;17595;50.884;4.346;2023-12-14T07:43:01;10.10;99.90
30893;DHT22;17595;50.884;4.346;2023-12-14T07:45:27;10.00;99.90
30893;DHT22;17595;50.884;4.346;2023-12-14T07:47:52;9.80;99.90
30893;DHT22;17595;50.884;4.346;2023-12-14T07:50:19;9.60;99.90
30893;DHT22;17595;50.884;4.346;2023-12-14T07:52:45;9.60;99.90
30893;DHT22;17595;50.884;4.346;2023-12-14T07:55:10;9.40;99.90
30893;DHT22;17595;50.884;4.346;2023-12-14T07:57:36;9.30;99.90
30893;DHT22;17595;50.884;4.346;2023-12-14T08:00:02;9.30;99.90
30893;DHT22;17595;50.884;4.346;2023-12-14T08:02:29;9.20;99.90
30893;DHT22;17595;50.884;4.346;2023-12-14T08:04:54;9.20;99.90
30893;DHT22;17595;50.884;4.346;2023-12-14T08:07:20;9.20;99.90
30893;DHT22;17595;50.884;4.346;2023-12-14T08:09:46;9.40;99.90
30893;DHT22;17595;50.884;4.346;2023-12-14T08:12:11;9.50;99.90
30893;DHT22;17595;50.884;4.346;2023-12-14T08:14:37;9.50;99.90
30893;DHT22;17595;50.884;4.346;2023-12-14T08:17:06;9.70;99.90
30893;DHT22;17595;50.884;4.346;2023-12-14T08:19:32;9.80;99.90
30893;DHT22;17595;50.884;4.346;2023-12-14T08:21:57;9.90;99.90
30893;DHT22;17595;50.884;4.346;2023-12-14T08:24:23;9.90;99.90
30893;DHT22;17595;50.884;4.346;2023-12-14T08:26:48;9.70;99.90
30893;DHT22;17595;50.884;4.346;2023-12-14T08:29:14;9.70;99.90
30893;DHT22;17595;50.884;4.346;2023-12-14T08:31:39;9.70;99.90
30893;DHT22;17595;50.884;4.346;2023-12-14T08:34:05;9.60;99.90
30893;DHT22;17595;50.884;4.346;2023-12-14T08:36:31;9.40;99.90
30893;DHT22;17595;50.884;4.346;2023-12-14T08:38:57;9.30;99.90
30893;DHT22;17595;50.884;4.346;2023-12-14T08:41:23;9.40;99.90
30893;DHT22;17595;50.884;4.346;2023-12-14T08:43:49;9.60;99.90
30893;DHT22;17595;50.884;4.346;2023-12-14T08:46:15;9.70;99.90
30893;DHT22;17595;50.884;4.346;2023-12-14T08:48:40;9.50;99.90
30893;DHT22;17595;50.884;4.346;2023-12-14T08:51:06;9.30;99.90
30893;DHT22;17595;50.884;4.346;2023-12-14T08:53:32;9.30;99.90
30893;DHT22;17595;50.884;4.346;2023-12-14T08:55:57;9.30;99.90
30893;DHT22;17595;50.884;4.346;2023-12-14T08:58:23;9.40;99.90
30893;DHT22;17595;50.884;4.346;2023-12-14T09:00:49;9.50;99.90
30893;DHT22;17595;50.884;4.346;2023-12-14T09:03:19;9.60;99.90
30893;DHT22;17595;50.884;4.346;2023-12-14T09:05:44;9.50;99.90
30893;DHT22;17595;50.884;4.346;2023-12-14T09:08:11;9.50;99.90
30893;DHT22;17595;50.884;4.346;2023-12-14T09:10:38;9.30;99.90
30893;DHT22;17595;50.884;4.346;2023-12-14T09:13:04;9.10;99.90
30893;DHT22;17595;50.884;4.346;2023-12-14T09:15:33;9.20;99.90
30893;DHT22;17595;50.884;4.346;2023-12-14T09:17:59;9.10;99.90
30893;DHT22;17595;50.884;4.346;2023-12-14T09:20:24;9.10;99.90
30893;DHT22;17595;50.884;4.346;2023-12-14T09:22:50;9.10;99.90
30893;DHT22;17595;50.884;4.346;2023-12-14T09:25:16;9.30;99.90
30893;DHT22;17595;50.884;4.346;2023-12-14T09:27:42;9.40;99.90
30893;DHT22;17595;50.884;4.346;2023-12-14T09:30:08;9.70;99.90
30893;DHT22;17595;50.884;4.346;2023-12-14T09:32:34;9.90;99.90
30893;DHT22;17595;50.884;4.346;2023-12-14T09:35:00;9.80;99.90
30893;DHT22;17595;50.884;4.346;2023-12-14T09:37:25;9.80;99.90
30893;DHT22;17595;50.884;4.346;2023-12-14T09:39:51;10.00;99.90
30893;DHT22;17595;50.884;4.346;2023-12-14T09:42:20;9.90;99.90
30893;DHT22;17595;50.884;4.346;2023-12-14T09:44:50;9.80;99.90
30893;DHT22;17595;50.884;4.346;2023-12-14T09:47:16;9.80;99.90
30893;DHT22;17595;50.884;4.346;2023-12-14T09:49:42;9.90;99.90
30893;DHT22;17595;50.884;4.346;2023-12-14T09:52:11;10.00;99.90
30893;DHT22;17595;50.884;4.346;2023-12-14T09:54:37;10.00;99.90
30893;DHT22;17595;50.884;4.346;2023-12-14T09:57:03;10.00;99.90
30893;DHT22;17595;50.884;4.346;2023-12-14T09:59:29;10.20;99.90
30893;DHT22;17595;50.884;4.346;2023-12-14T10:02:11;10.00;99.90
30893;DHT22;17595;50.884;4.346;2023-12-14T10:04:37;10.10;99.90
30893;DHT22;17595;50.884;4.346;2023-12-14T10:07:03;9.90;99.90
30893;DHT22;17595;50.884;4.346;2023-12-14T10:09:32;9.70;99.90
30893;DHT22;17595;50.884;4.346;2023-12-14T10:12:08;9.60;99.90
30893;DHT22;17595;50.884;4.346;2023-12-14T10:14:35;9.80;99.90
30893;DHT22;17595;50.884;4.346;2023-12-14T10:17:19;9.90;99.90
30893;DHT22;17595;50.884;4.346;2023-12-14T10:19:46;10.00;99.90
30893;DHT22;17595;50.884;4.346;2023-12-14T10:22:15;10.10;99.90
30893;DHT22;17595;50.884;4.346;2023-12-14T10:24:43;10.30;99.90
30893;DHT22;17595;50.884;4.346;2023-12-14T10:27:10;10.50;99.90
30893;DHT22;17595;50.884;4.346;2023-12-14T10:29:39;10.50;99.90
30893;DHT22;17595;50.884;4.346;2023-12-14T10:32:06;10.70;99.90
30893;DHT22;17595;50.884;4.346;2023-12-14T10:34:34;10.70;99.90
30893;DHT22;17595;50.884;4.346;2023-12-14T10:37:01;10.50;99.90
30893;DHT22;17595;50.884;4.346;2023-12-14T10:39:29;10.30;99.90
30893;DHT22;17595;50.884;4.346;2023-12-14T10:41:57;10.20;99.90
30893;DHT22;17595;50.884;4.346;2023-12-14T10:44:26;10.10;99.90
30893;DHT22;17595;50.884;4.346;2023-12-14T10:46:55;10.20;99.90
30893;DHT22;17595;50.884;4.346;2023-12-14T10:49:27;10.20;99.90
30893;DHT22;17595;50.884;4.346;2023-12-14T10:51:55;10.10;99.90
30893;DHT22;17595;50.884;4.346;2023-12-14T10:54:24;10.10;99.90
30893;DHT22;17595;50.884;4.346;2023-12-14T10:56:59;10.10;99.90
30893;DHT22;17595;50.884;4.346;2023-12-14T10:59:25;10.10;99.90
30893;DHT22;17595;50.884;4.346;2023-12-14T11:01:54;10.30;99.90
30893;DHT22;17595;50.884;4.346;2023-12-14T11:04:25;10.50;99.90
30893;DHT22;17595;50.884;4.346;2023-12-14T11:06:53;10.50;99.90
30893;DHT22;17595;50.884;4.346;2023-12-14T11:09:22;10.50;99.90
30893;DHT22;17595;50.884;4.346;2023-12-14T11:11:55;10.60;99.90
30893;DHT22;17595;50.884;4.346;2023-12-14T11:14:23;10.80;99.90
30893;DHT22;17595;50.884;4.346;2023-12-14T11:16:54;10.80;99.90
30893;DHT22;17595;50.884;4.346;2023-12-14T11:24:20;10.20;99.90
30893;DHT22;17595;50.884;4.346;2023-12-14T11:26:49;10.20;99.90
30893;DHT22;17595;50.884;4.346;2023-12-14T11:29:15;10.20;99.90
30893;DHT22;17595;50.884;4.346;2023-12-14T11:31:40;9.90;99.90
30893;DHT22;17595;50.884;4.346;2023-12-14T11:34:06;9.80;99.90
30893;DHT22;17595;50.884;4.346;2023-12-14T11:36:33;9.90;99.90
30893;DHT22;17595;50.884;4.346;2023-12-14T11:38:58;10.00;99.90
30893;DHT22;17595;50.884;4.346;2023-12-14T11:41:24;10.00;99.90
30893;DHT22;17595;50.884;4.346;2023-12-14T11:43:54;9.90;99.90
30893;DHT22;17595;50.884;4.346;2023-12-14T11:46:20;9.80;99.90
30893;DHT22;17595;50.884;4.346;2023-12-14T11:48:46;9.80;99.90
30893;DHT22;17595;50.884;4.346;2023-12-14T11:51:15;9.80;99.90
30893;DHT22;17595;50.884;4.346;2023-12-14T11:53:46;9.80;99.90
30893;DHT22;17595;50.884;4.346;2023-12-14T11:56:14;10.00;99.90
30893;DHT22;17595;50.884;4.346;2023-12-14T11:58:44;10.30;99.90
30893;DHT22;17595;50.884;4.346;2023-12-14T12:01:14;10.50;99.90
30893;DHT22;17595;50.884;4.346;2023-12-14T12:03:40;10.70;99.90
30893;DHT22;17595;50.884;4.346;2023-12-14T12:06:06;10.70;99.90
30893;DHT22;17595;50.884;4.346;2023-12-14T12:08:40;10.70;99.90
30893;DHT22;17595;50.884;4.346;2023-12-14T12:11:07;10.70;99.90
30893;DHT22;17595;50.884;4.346;2023-12-14T12:13:34;10.60;99.90
30893;DHT22;17595;50.884;4.346;2023-12-14T12:16:00;10.70;99.90
30893;DHT22;17595;50.884;4.346;2023-12-14T12:18:25;10.80;99.90
30893;DHT22;17595;50.884;4.346;2023-12-14T12:20:51;10.90;99.90
30893;DHT22;17595;50.884;4.346;2023-12-14T12:23:18;11.00;99.90
30893;DHT22;17595;50.884;4.346;2023-12-14T12:25:44;10.90;99.90
30893;DHT22;17595;50.884;4.346;2023-12-14T12:28:10;10.70;99.90
30893;DHT22;17595;50.884;4.346;2023-12-14T12:30:35;10.60;99.90
30893;DHT22;17595;50.884;4.346;2023-12-14T12:33:01;10.60;99.90
30893;DHT22;17595;50.884;4.346;2023-12-14T12:35:27;10.40;99.90
30893;DHT22;17595;50.884;4.346;2023-12-14T12:37:55;10.00;99.90
30893;DHT22;17595;50.884;4.346;2023-12-14T12:40:22;9.90;99.90
30893;DHT22;17595;50.884;4.346;2023-12-14T12:42:49;9.80;99.90
30893;DHT22;17595;50.884;4.346;2023-12-14T12:45:15;9.70;99.90
30893;DHT22;17595;50.884;4.346;2023-12-14T12:47:48;9.80;99.90
30893;DHT22;17595;50.884;4.346;2023-12-14T12:50:14;9.90;99.90
30893;DHT22;17595;50.884;4.346;2023-12-14T12:52:40;9.90;99.90
30893;DHT22;17595;50.884;4.346;2023-12-14T12:55:08;9.90;99.90
30893;DHT22;17595;50.884;4.346;2023-12-14T12:57:37;9.90;99.90
30893;DHT22;17595;50.884;4.346;2023-12-14T13:00:04;10.00;99.90
30893;DHT22;17595;50.884;4.346;2023-12-14T13:02:30;10.10;99.90
30893;DHT22;17595;50.884;4.346;2023-12-14T13:04:55;10.20;99.90
30893;DHT22;17595;50.884;4.346;2023-12-14T13:07:21;10.30;99.90
30893;DHT22;17595;50.884;4.346;2023-12-14T13:09:47;10.40;99.90
30893;DHT22;17595;50.884;4.346;2023-12-14T13:12:12;10.50;99.90
30893;DHT22;17595;50.884;4.346;2023-12-14T13:14:38;10.50;99.90
30893;DHT22;17595;50.884;4.346;2023-12-14T13:17:04;10.70;99.90
30893;DHT22;17595;50.884;4.346;2023-12-14T13:19:29;10.70;99.90
30893;DHT22;17595;50.884;4.346;2023-12-14T13:21:55;10.70;99.90
30893;DHT22;17595;50.884;4.346;2023-12-14T13:24:25;10.60;99.90
30893;DHT22;17595;50.884;4.346;2023-12-14T13:26:50;10.60;99.90
30893;DHT22;17595;50.884;4.346;2023-12-14T13:29:16;10.50;99.90
30893;DHT22;17595;50.884;4.346;2023-12-14T13:31:41;10.50;99.90
30893;DHT22;17595;50.884;4.346;2023-12-14T13:34:07;10.60;99.90
30893;DHT22;17595;50.884;4.346;2023-12-14T13:36:33;10.70;99.90
30893;DHT22;17595;50.884;4.346;2023-12-14T13:38:58;10.90;99.90
30893;DHT22;17595;50.884;4.346;2023-12-14T13:41:24;10.90;99.90
30893;DHT22;17595;50.884;4.346;2023-12-14T13:43:50;10.90;99.90
30893;DHT22;17595;50.884;4.346;2023-12-14T13:46:17;10.90;99.90
30893;DHT22;17595;50.884;4.346;2023-12-14T13:48:43;11.10;99.90
30893;DHT22;17595;50.884;4.346;2023-12-14T13:51:08;11.10;99.90
30893;DHT22;17595;50.884;4.346;2023-12-14T13:53:34;11.10;99.90
30893;DHT22;17595;50.884;4.346;2023-12-14T13:56:00;11.20;99.90
30893;DHT22;17595;50.884;4.346;2023-12-14T13:58:25;11.20;99.90
30893;DHT22;17595;50.884;4.346;2023-12-14T14:00:51;11.30;99.90
30893;DHT22;17595;50.884;4.346;2023-12-14T14:03:16;11.40;99.90
30893;DHT22;17595;50.884;4.346;2023-12-14T14:05:42;11.10;99.90
30893;DHT22;17595;50.884;4.346;2023-12-14T14:08:09;11.00;99.90
30893;DHT22;17595;50.884;4.346;2023-12-14T14:10:35;11.00;99.90
30893;DHT22;17595;50.884;4.346;2023-12-14T14:13:01;10.90;99.90
30893;DHT22;17595;50.884;4.346;2023-12-14T14:15:26;11.10;99.90
30893;DHT22;17595;50.884;4.346;2023-12-14T14:17:53;11.10;99.90
30893;DHT22;17595;50.884;4.346;2023-12-14T14:20:20;11.20;99.90
30893;DHT22;17595;50.884;4.346;2023-12-14T14:22:45;11.30;99.90
30893;DHT22;17595;50.884;4.346;2023-12-14T14:25:11;11.40;99.90
30893;DHT22;17595;50.884;4.346;2023-12-14T14:27:36;11.30;99.90
30893;DHT22;17595;50.884;4.346;2023-12-14T14:30:04;11.10;99.90
30893;DHT22;17595;50.884;4.346;2023-12-14T14:32:30;10.90;99.90
30893;DHT22;17595;50.884;4.346;2023-12-14T14:35:00;10.90;99.90
30893;DHT22;17595;50.884;4.346;2023-12-14T14:37:26;10.80;99.90
30893;DHT22;17595;50.884;4.346;2023-12-14T14:39:52;10.80;99.90
30893;DHT22;17595;50.884;4.346;2023-12-14T14:42:17;10.90;99.90
30893;DHT22;17595;50.884;4.346;2023-12-14T14:44:43;10.80;99.90
30893;DHT22;17595;50.884;4.346;2023-12-14T14:47:09;10.80;99.90
30893;DHT22;17595;50.884;4.346;2023-12-14T14:49:34;10.70;99.90
30893;DHT22;17595;50.884;4.346;2023-12-14T14:52:00;10.60;99.90
30893;DHT22;17595;50.884;4.346;2023-12-14T14:54:26;10.40;99.90
30893;DHT22;17595;50.884;4.346;2023-12-14T14:56:51;10.30;99.90
30893;DHT22;17595;50.884;4.346;2023-12-14T14:59:17;10.10;99.90
30893;DHT22;17595;50.884;4.346;2023-12-14T15:01:43;10.10;99.90
30893;DHT22;17595;50.884;4.346;2023-12-14T15:04:10;10.20;99.90
30893;DHT22;17595;50.884;4.346;2023-12-14T15:06:36;10.20;99.90
30893;DHT22;17595;50.884;4.346;2023-12-14T15:09:04;10.10;99.90
30893;DHT22;17595;50.884;4.346;2023-12-14T15:11:29;10.00;99.90
30893;DHT22;17595;50.884;4.346;2023-12-14T15:13:55;10.00;99.90
30893;DHT22;17595;50.884;4.346;2023-12-14T15:16:21;10.00;99.90
30893;DHT22;17595;50.884;4.346;2023-12-14T15:18:53;10.00;99.90
30893;DHT22;17595;50.884;4.346;2023-12-14T15:21:19;10.00;99.90
30893;DHT22;17595;50.884;4.346;2023-12-14T15:23:45;10.00;99.90
30893;DHT22;17595;50.884;4.346;2023-12-14T15:26:12;10.00;99.90
30893;DHT22;17595;50.884;4.346;2023-12-14T15:28:38;10.20;99.90
30893;DHT22;17595;50.884;4.346;2023-12-14T15:31:04;10.20;99.90
30893;DHT22;17595;50.884;4.346;2023-12-14T15:33:30;10.20;99.90
30893;DHT22;17595;50.884;4.346;2023-12-14T15:35:56;10.20;99.90